createdAt,value
2023-05-05T00:01:22.064Z,6.55
2023-05-05T00:06:25.554Z,8.90
2023-05-05T00:11:28.730Z,10.07
2023-05-05T00:16:32.567Z,8.07
2023-05-05T00:21:36.263Z,5.45
2023-05-05T00:26:39.814Z,4.22
2023-05-05T00:31:43.360Z,4.00
2023-05-05T00:36:47.393Z,3.60
2023-05-05T00:41:51.099Z,4.13
2023-05-05T00:46:54.256Z,3.75
2023-05-05T00:51:58.721Z,3.35
2023-05-05T00:57:05.091Z,3.60
2023-05-05T01:02:09.859Z,3.67
2023-05-05T01:07:35.347Z,3.20
2023-05-05T01:12:54.447Z,3.17
2023-05-05T01:18:07.172Z,3.25
2023-05-05T01:23:19.508Z,3.58
2023-05-05T01:28:55.552Z,3.30
2023-05-05T01:34:06.646Z,3.50
2023-05-05T01:39:16.490Z,3.97
2023-05-05T01:44:20.735Z,3.30
2023-05-05T01:49:25.124Z,3.30
2023-05-05T01:54:30.124Z,3.03
2023-05-05T01:59:35.418Z,3.70
2023-05-05T02:04:42.851Z,3.13
2023-05-05T02:09:47.416Z,3.85
2023-05-05T02:14:53.318Z,3.42
2023-05-05T02:19:59.226Z,3.25
2023-05-05T02:25:02.596Z,3.10
2023-05-05T02:30:11.311Z,3.53
2023-05-05T02:35:18.584Z,3.03
2023-05-05T02:40:27.150Z,4.15
2023-05-05T02:45:32.046Z,4.63
2023-05-05T02:50:36.578Z,5.20
2023-05-05T02:55:57.090Z,4.85
2023-05-05T03:01:17.270Z,4.65
2023-05-05T03:06:23.292Z,4.22
2023-05-05T03:16:37.083Z,4.85
2023-05-05T03:21:44.615Z,4.72
2023-05-05T03:26:49.995Z,5.03
2023-05-05T03:31:57.302Z,4.10
2023-05-05T03:37:01.476Z,6.10
2023-05-05T03:42:05.349Z,5.20
2023-05-05T03:47:11.690Z,3.87
2023-05-05T03:52:17.282Z,4.50
2023-05-05T03:57:21.957Z,3.50
2023-05-05T04:02:26.717Z,3.63
2023-05-05T04:07:31.088Z,4.00
2023-05-05T04:12:44.369Z,4.38
2023-05-05T04:17:53.720Z,3.85
2023-05-05T04:22:57.797Z,4.10
2023-05-05T04:28:01.829Z,5.20
2023-05-05T04:33:05.631Z,4.28
2023-05-05T04:38:10.350Z,4.15
2023-05-05T04:43:13.988Z,4.10
2023-05-05T04:48:18.085Z,4.40
2023-05-05T04:53:21.877Z,4.32
2023-05-05T04:58:26.086Z,4.75
2023-05-05T05:03:29.574Z,4.90
2023-05-05T05:08:32.780Z,4.75
2023-05-05T05:13:37.133Z,5.15
2023-05-05T05:18:41.657Z,5.45
2023-05-05T05:23:45.315Z,5.50
2023-05-05T05:28:49.405Z,5.55
2023-05-05T05:33:52.904Z,5.57
2023-05-05T05:38:56.714Z,5.57
2023-05-05T05:44:00.754Z,5.80
2023-05-05T05:49:05.280Z,4.63
2023-05-05T05:54:08.826Z,4.50
2023-05-05T05:59:13.010Z,4.10
2023-05-05T06:04:18.429Z,3.10
2023-05-05T06:09:23.147Z,2.58
2023-05-05T06:14:27.099Z,2.30
2023-05-05T06:19:30.858Z,3.17
2023-05-05T06:24:34.403Z,2.60
2023-05-05T06:29:39.007Z,1.55
2023-05-05T06:34:44.983Z,2.10
2023-05-05T06:39:48.301Z,1.70
2023-05-05T06:44:51.955Z,1.55
2023-05-05T06:49:55.832Z,1.00
2023-05-05T06:55:00.013Z,1.00
2023-05-05T07:00:06.182Z,1.15
2023-05-05T07:05:09.775Z,1.63
2023-05-05T07:10:13.460Z,1.17
2023-05-05T07:15:27.556Z,1.08
2023-05-05T07:20:33.371Z,1.60
2023-05-05T07:25:37.733Z,2.08
2023-05-05T07:30:41.024Z,1.80
2023-05-05T07:35:44.180Z,1.70
2023-05-05T07:40:47.780Z,2.17
2023-05-05T07:45:51.607Z,3.08
2023-05-05T07:50:55.277Z,2.80
2023-05-05T07:55:58.870Z,2.63
2023-05-05T08:01:03.100Z,2.38
2023-05-05T08:06:12.385Z,2.13
2023-05-05T08:11:16.872Z,2.65
2023-05-05T08:16:20.595Z,2.58
2023-05-05T08:21:24.247Z,2.30
2023-05-05T08:26:27.903Z,2.47
2023-05-05T08:31:37.486Z,2.50
2023-05-05T08:36:41.563Z,2.63
2023-05-05T08:41:44.814Z,3.58
2023-05-05T08:46:50.669Z,3.05
2023-05-05T08:51:55.346Z,2.50
2023-05-05T08:57:02.223Z,3.70
2023-05-05T09:02:07.585Z,3.90
2023-05-05T09:12:16.246Z,3.30
2023-05-05T09:17:25.139Z,4.07
2023-05-05T09:22:41.527Z,2.67
2023-05-05T09:27:48.242Z,2.63
2023-05-05T09:32:55.883Z,2.80
2023-05-05T09:38:12.601Z,2.72
2023-05-05T09:43:17.991Z,2.95
2023-05-05T09:48:29.534Z,2.38
2023-05-05T09:53:43.227Z,2.38
2023-05-05T09:58:46.753Z,2.65
2023-05-05T10:03:53.048Z,3.20
2023-05-05T10:09:02.834Z,3.50
2023-05-05T10:14:08.696Z,3.30
2023-05-05T10:19:14.895Z,3.60
2023-05-05T10:24:51.132Z,3.50
2023-05-05T10:30:09.066Z,3.75
2023-05-05T10:35:17.982Z,3.72
2023-05-05T10:40:23.024Z,4.03
2023-05-05T10:45:27.743Z,4.05
2023-05-05T10:50:36.898Z,4.60
2023-05-05T10:55:48.827Z,3.95
2023-05-05T11:00:52.153Z,3.90
2023-05-05T11:06:05.208Z,4.47
2023-05-05T11:11:12.878Z,4.90
2023-05-05T11:16:46.049Z,3.50
2023-05-05T11:22:02.595Z,4.32
2023-05-05T11:27:07.300Z,3.75
2023-05-05T11:32:14.937Z,4.80
2023-05-05T11:37:18.476Z,4.43
2023-05-05T11:42:25.080Z,4.43
2023-05-05T11:47:30.141Z,4.47
2023-05-05T11:52:34.811Z,4.80
2023-05-05T11:57:38.705Z,4.32
2023-05-05T12:02:42.589Z,4.65
2023-05-05T12:07:45.886Z,5.03
2023-05-05T12:12:50.117Z,4.60
2023-05-05T12:17:53.579Z,5.60
2023-05-05T12:23:02.519Z,5.07
2023-05-05T12:28:07.908Z,5.05
2023-05-05T12:33:12.080Z,4.70
2023-05-05T12:38:16.723Z,3.35
2023-05-05T12:43:34.495Z,3.67
2023-05-05T12:48:40.026Z,3.40
2023-05-05T12:53:43.981Z,3.20
2023-05-05T12:58:52.380Z,3.60
2023-05-05T13:04:05.850Z,3.67
2023-05-05T13:09:12.563Z,3.58
2023-05-05T13:14:16.716Z,2.75
2023-05-05T13:19:19.969Z,3.50
2023-05-05T13:24:38.189Z,2.67
2023-05-05T13:29:49.282Z,3.10
2023-05-05T13:34:52.640Z,3.40
2023-05-05T13:39:59.774Z,3.40
2023-05-05T13:45:03.373Z,2.92
2023-05-05T13:50:08.180Z,3.15
2023-05-05T13:55:11.383Z,3.08
2023-05-05T14:00:15.330Z,3.20
2023-05-05T14:05:20.356Z,3.00
2023-05-05T14:10:23.489Z,2.75
2023-05-05T14:15:27.115Z,2.63
2023-05-05T14:20:31.370Z,2.90
2023-05-05T14:25:35.228Z,2.58
2023-05-05T14:30:38.702Z,3.00
2023-05-05T14:35:41.919Z,3.00
2023-05-05T14:40:45.640Z,3.08
2023-05-05T14:45:49.804Z,2.83
2023-05-05T14:50:53.362Z,3.03
2023-05-05T14:55:57.226Z,2.72
2023-05-05T15:01:00.794Z,2.90
2023-05-05T15:06:05.282Z,2.53
2023-05-05T15:11:08.439Z,3.43
2023-05-05T15:16:11.668Z,3.03
2023-05-05T15:21:14.772Z,3.25
2023-05-05T15:26:17.805Z,2.67
2023-05-05T15:31:20.917Z,3.10
2023-05-05T15:36:24.893Z,2.80
2023-05-05T15:41:29.829Z,3.17
2023-05-05T15:46:35.700Z,3.63
2023-05-05T15:51:38.874Z,3.45
2023-05-05T15:56:41.881Z,3.78
2023-05-05T16:01:44.974Z,4.90
2023-05-05T16:06:47.990Z,4.43
2023-05-05T16:11:53.970Z,4.63
2023-05-05T16:16:57.163Z,5.03
2023-05-05T16:22:00.553Z,6.47
2023-05-05T16:27:04.057Z,4.45
2023-05-05T16:32:07.229Z,4.95
2023-05-05T16:37:10.209Z,4.65
2023-05-05T16:42:13.668Z,4.75
2023-05-05T16:47:16.674Z,4.80
2023-05-05T16:52:19.718Z,5.95
2023-05-05T16:57:23.497Z,4.90
2023-05-05T17:02:26.738Z,4.50
2023-05-05T17:07:29.955Z,4.57
2023-05-05T17:12:35.087Z,4.30
2023-05-05T17:17:38.790Z,4.82
2023-05-05T17:22:42.976Z,6.40
2023-05-05T17:27:46.068Z,5.28
2023-05-05T17:32:49.301Z,4.72
2023-05-05T17:37:52.356Z,4.03
2023-05-05T17:42:55.452Z,3.30
2023-05-05T17:47:58.720Z,3.90
2023-05-05T17:53:01.992Z,3.60
2023-05-05T17:58:05.177Z,3.15
2023-05-05T18:03:08.382Z,2.90
2023-05-05T18:08:11.487Z,4.30
2023-05-05T18:13:14.584Z,4.90
2023-05-05T18:18:17.905Z,5.72
2023-05-05T18:23:21.383Z,5.43
2023-05-05T18:28:25.361Z,5.55
2023-05-05T18:33:29.619Z,5.75
2023-05-05T18:38:34.180Z,5.10
2023-05-05T18:43:38.074Z,4.75
2023-05-05T18:48:42.080Z,4.60
2023-05-05T18:53:45.680Z,5.30
2023-05-05T18:58:49.389Z,5.43
2023-05-05T19:03:52.575Z,4.90
2023-05-05T19:08:57.286Z,4.80
2023-05-05T19:14:01.594Z,5.38
2023-05-05T19:19:05.448Z,5.30
2023-05-05T19:24:09.973Z,5.13
2023-05-05T19:29:13.685Z,5.53
2023-05-05T19:34:17.190Z,5.70
2023-05-05T19:39:20.880Z,5.20
2023-05-05T19:44:25.036Z,5.72
2023-05-05T19:49:28.661Z,6.07
2023-05-05T19:54:32.032Z,5.95
2023-05-05T19:59:35.705Z,5.82
2023-05-05T20:04:39.209Z,6.15
2023-05-05T20:09:43.291Z,5.63
2023-05-05T20:14:47.303Z,5.53
2023-05-05T20:19:50.916Z,6.00
2023-05-05T20:24:55.198Z,5.70
2023-05-05T20:29:59.184Z,4.90
2023-05-05T20:35:03.292Z,5.55
2023-05-05T20:40:08.098Z,4.85
2023-05-05T20:45:12.791Z,5.07
2023-05-05T20:50:20.626Z,6.10
2023-05-05T20:55:24.175Z,4.88
2023-05-05T21:00:27.737Z,6.15
2023-05-05T21:05:31.907Z,5.93
2023-05-05T21:10:35.064Z,6.57
2023-05-05T21:15:38.801Z,7.78
2023-05-05T21:20:42.782Z,8.95
2023-05-05T21:25:46.102Z,8.30
2023-05-05T21:35:59.804Z,9.57
2023-05-05T21:41:04.267Z,14.63
2023-05-05T21:46:08.523Z,16.70
2023-05-05T21:51:12.423Z,15.70
2023-05-05T21:56:15.977Z,18.15
2023-05-05T22:01:19.117Z,18.08
2023-05-05T22:06:22.924Z,16.33
2023-05-05T22:11:26.553Z,12.55
2023-05-05T22:16:30.478Z,12.90
2023-05-05T22:21:34.023Z,12.90
2023-05-05T22:26:43.321Z,13.15
2023-05-05T22:31:46.614Z,13.32
2023-05-05T22:36:50.720Z,14.55
2023-05-05T22:41:54.777Z,22.42
2023-05-05T22:46:58.931Z,22.83
2023-05-05T22:52:02.992Z,14.38
2023-05-05T22:57:06.108Z,14.32
2023-05-05T23:02:09.765Z,13.23
2023-05-05T23:07:14.405Z,10.93
2023-05-05T23:12:17.842Z,9.38
2023-05-05T23:17:21.514Z,9.60
2023-05-05T23:22:25.153Z,8.82
2023-05-05T23:27:28.683Z,7.63
2023-05-05T23:32:32.265Z,8.27
2023-05-05T23:37:35.573Z,8.18
2023-05-05T23:42:39.190Z,8.20
2023-05-05T23:47:42.727Z,8.27
2023-05-05T23:52:46.640Z,8.05
2023-05-05T23:57:52.485Z,7.20
